createdAt,value
2019-02-23T00:01:15.154Z,23.10
2019-02-23T00:03:44.251Z,22.37
2019-02-23T00:06:13.331Z,21.43
2019-02-23T00:08:42.445Z,22.77
2019-02-23T00:11:11.577Z,21.23
2019-02-23T00:13:40.864Z,21.23
2019-02-23T00:16:09.893Z,22.40
2019-02-23T00:18:38.971Z,23.10
2019-02-23T00:21:08.096Z,20.77
2019-02-23T00:23:37.233Z,20.60
2019-02-23T00:26:06.341Z,21.70
2019-02-23T00:28:35.417Z,22.03
2019-02-23T00:31:04.510Z,20.37
2019-02-23T00:33:33.592Z,20.47
2019-02-23T00:36:02.688Z,19.40
2019-02-23T00:38:31.769Z,20.73
2019-02-23T00:41:00.831Z,20.37
2019-02-23T00:43:29.945Z,19.70
2019-02-23T00:45:59.034Z,20.03
2019-02-23T00:48:28.198Z,18.40
2019-02-23T00:50:57.228Z,18.03
2019-02-23T00:53:26.329Z,19.90
2019-02-23T00:55:55.425Z,19.23
2019-02-23T00:58:24.543Z,18.90
2019-02-23T01:00:53.649Z,19.60
2019-02-23T01:03:22.731Z,20.20
2019-02-23T01:05:51.789Z,19.07
2019-02-23T01:08:20.855Z,18.43
2019-02-23T01:10:57.790Z,18.23
2019-02-23T01:13:20.893Z,17.13
2019-02-23T01:15:50.127Z,17.67
2019-02-23T01:18:19.243Z,16.17
2019-02-23T01:20:48.372Z,16.10
2019-02-23T01:23:17.492Z,16.63
2019-02-23T01:25:46.584Z,16.47
2019-02-23T01:28:15.708Z,17.63
2019-02-23T01:30:44.889Z,16.80
2019-02-23T01:33:14.063Z,16.17
2019-02-23T01:35:43.148Z,15.07
2019-02-23T01:38:12.347Z,15.73
2019-02-23T01:40:41.532Z,15.17
2019-02-23T01:43:10.669Z,14.93
2019-02-23T01:45:42.577Z,15.63
2019-02-23T01:48:10.686Z,15.23
2019-02-23T01:50:39.911Z,14.03
2019-02-23T01:53:09.070Z,13.40
2019-02-23T01:55:38.212Z,14.97
2019-02-23T01:58:07.282Z,16.37
2019-02-23T02:00:36.400Z,15.47
2019-02-23T02:03:05.508Z,14.80
2019-02-23T02:05:34.728Z,15.70
2019-02-23T02:08:03.826Z,13.60
2019-02-23T02:10:33.179Z,13.77
2019-02-23T02:13:02.331Z,14.33
2019-02-23T02:15:31.550Z,14.33
2019-02-23T02:18:00.702Z,14.20
2019-02-23T02:20:29.842Z,13.97
2019-02-23T02:22:58.996Z,15.07
2019-02-23T02:25:28.368Z,13.60
2019-02-23T02:27:57.513Z,13.70
2019-02-23T02:30:26.748Z,13.40
2019-02-23T02:32:55.852Z,14.37
2019-02-23T02:35:24.977Z,13.53
2019-02-23T02:37:54.089Z,11.67
2019-02-23T02:40:23.263Z,12.77
2019-02-23T02:42:52.591Z,13.03
2019-02-23T02:45:21.707Z,12.33
2019-02-23T02:47:50.835Z,12.13
2019-02-23T02:50:24.415Z,12.63
2019-02-23T02:52:50.804Z,14.20
2019-02-23T02:55:19.949Z,12.70
2019-02-23T02:57:49.047Z,12.67
2019-02-23T03:00:18.101Z,13.63
2019-02-23T03:02:47.095Z,13.07
2019-02-23T03:05:16.228Z,13.00
2019-02-23T03:07:45.290Z,13.27
2019-02-23T03:10:14.382Z,13.67
2019-02-23T03:12:43.449Z,13.07
2019-02-23T03:15:12.565Z,14.00
2019-02-23T03:17:41.672Z,13.80
2019-02-23T03:20:10.779Z,13.03
2019-02-23T03:22:39.820Z,13.43
2019-02-23T03:25:08.990Z,13.13
2019-02-23T03:27:38.060Z,13.93
2019-02-23T03:30:08.731Z,12.77
2019-02-23T03:32:37.839Z,12.37
2019-02-23T03:35:06.949Z,11.87
2019-02-23T03:37:36.030Z,11.87
2019-02-23T03:40:05.600Z,11.53
2019-02-23T03:42:34.715Z,11.23
2019-02-23T03:45:03.834Z,12.40
2019-02-23T03:47:32.923Z,11.37
2019-02-23T03:50:02.042Z,11.77
2019-02-23T03:52:31.123Z,11.20
2019-02-23T03:55:00.385Z,12.97
2019-02-23T03:57:31.575Z,11.40
2019-02-23T04:00:00.652Z,11.67
2019-02-23T04:02:29.790Z,10.93
2019-02-23T04:04:58.924Z,11.87
2019-02-23T04:07:27.980Z,11.30
2019-02-23T04:09:57.040Z,11.70
2019-02-23T04:12:26.107Z,11.30
2019-02-23T04:14:55.184Z,10.87
2019-02-23T04:17:24.283Z,10.43
2019-02-23T04:19:53.394Z,10.67
2019-02-23T04:22:22.529Z,12.30
2019-02-23T04:24:51.680Z,11.37
2019-02-23T04:27:20.770Z,10.57
2019-02-23T04:29:49.842Z,11.50
2019-02-23T04:32:18.956Z,11.50
2019-02-23T04:34:48.072Z,10.90
2019-02-23T04:37:17.195Z,12.87
2019-02-23T04:39:46.274Z,13.47
2019-02-23T04:42:15.414Z,13.00
2019-02-23T04:44:44.520Z,12.43
2019-02-23T04:47:13.624Z,12.57
2019-02-23T04:49:42.670Z,12.50
2019-02-23T04:52:11.777Z,11.60
2019-02-23T04:54:40.864Z,12.20
2019-02-23T04:57:09.956Z,12.50
2019-02-23T04:59:39.030Z,13.53
2019-02-23T05:02:08.152Z,13.30
2019-02-23T05:04:37.236Z,13.60
2019-02-23T05:07:06.302Z,12.53
2019-02-23T05:09:35.370Z,13.07
2019-02-23T05:12:04.449Z,12.70
2019-02-23T05:14:33.551Z,13.40
2019-02-23T05:17:02.645Z,12.87
2019-02-23T05:19:31.720Z,12.30
2019-02-23T05:22:00.792Z,13.27
2019-02-23T05:24:29.814Z,13.13
2019-02-23T05:26:58.864Z,13.40
2019-02-23T05:29:27.967Z,13.07
2019-02-23T05:31:57.003Z,13.90
2019-02-23T05:34:26.087Z,13.40
2019-02-23T05:36:55.145Z,14.07
2019-02-23T05:39:24.215Z,13.30
2019-02-23T05:41:53.279Z,13.67
2019-02-23T05:44:22.344Z,13.23
2019-02-23T05:46:51.403Z,13.33
2019-02-23T05:49:20.491Z,15.13
2019-02-23T05:51:49.564Z,14.57
2019-02-23T05:54:18.666Z,14.73
2019-02-23T05:56:47.716Z,12.60
2019-02-23T05:59:16.828Z,13.53
2019-02-23T06:01:45.854Z,13.07
2019-02-23T06:04:14.935Z,14.73
2019-02-23T06:06:44.077Z,14.60
2019-02-23T06:09:13.147Z,14.13
2019-02-23T06:11:42.270Z,14.17
2019-02-23T06:14:11.342Z,13.63
2019-02-23T06:16:40.422Z,15.20
2019-02-23T06:19:09.508Z,13.73
2019-02-23T06:21:52.289Z,13.80
2019-02-23T06:24:09.530Z,13.50
2019-02-23T06:26:38.678Z,13.10
2019-02-23T06:29:07.770Z,14.13
2019-02-23T06:31:36.868Z,13.87
2019-02-23T06:34:15.477Z,13.43
2019-02-23T06:36:36.767Z,13.70
2019-02-23T06:39:06.414Z,13.53
2019-02-23T06:41:35.496Z,13.63
2019-02-23T06:44:04.617Z,13.77
2019-02-23T06:46:33.742Z,12.50
2019-02-23T06:49:02.797Z,13.77
2019-02-23T06:51:31.849Z,13.77
2019-02-23T06:54:00.977Z,11.87
2019-02-23T06:56:30.074Z,12.60
2019-02-23T06:58:59.227Z,13.20
2019-02-23T07:01:28.262Z,12.53
2019-02-23T07:03:57.299Z,12.37
2019-02-23T07:06:26.500Z,12.67
2019-02-23T07:08:55.563Z,12.63
2019-02-23T07:11:24.645Z,13.27
2019-02-23T07:13:53.706Z,12.27
2019-02-23T07:16:22.786Z,12.60
2019-02-23T07:18:51.956Z,10.23
2019-02-23T07:21:21.101Z,12.27
2019-02-23T07:23:50.243Z,11.17
2019-02-23T07:26:19.368Z,11.67
2019-02-23T07:28:48.407Z,10.43
2019-02-23T07:31:17.496Z,10.53
2019-02-23T07:33:46.569Z,10.87
2019-02-23T07:36:15.674Z,11.13
2019-02-23T07:38:44.881Z,10.37
2019-02-23T07:41:14.029Z,10.17
2019-02-23T07:43:43.077Z,10.30
2019-02-23T07:46:12.273Z,11.33
2019-02-23T07:48:41.459Z,10.87
2019-02-23T07:51:10.608Z,10.87
2019-02-23T07:53:39.666Z,11.60
2019-02-23T07:56:08.811Z,11.40
2019-02-23T07:58:38.062Z,10.90
2019-02-23T08:01:07.195Z,11.20
2019-02-23T08:03:36.276Z,12.27
2019-02-23T08:06:05.390Z,11.53
2019-02-23T08:08:34.469Z,11.80
2019-02-23T08:11:03.597Z,11.10
2019-02-23T08:13:32.679Z,11.53
2019-02-23T08:16:01.736Z,10.73
2019-02-23T08:18:30.818Z,10.70
2019-02-23T08:20:59.967Z,11.87
2019-02-23T08:23:29.021Z,11.53
2019-02-23T08:25:58.126Z,11.30
2019-02-23T08:28:27.362Z,11.63
2019-02-23T08:30:56.494Z,11.67
2019-02-23T08:33:25.626Z,12.77
2019-02-23T08:35:54.745Z,11.10
2019-02-23T08:38:23.856Z,12.00
2019-02-23T08:40:52.893Z,12.23
2019-02-23T08:43:21.999Z,11.90
2019-02-23T08:45:51.138Z,11.30
2019-02-23T08:48:20.269Z,11.53
2019-02-23T08:50:49.323Z,11.83
2019-02-23T08:53:18.417Z,11.70
2019-02-23T08:55:47.583Z,11.97
2019-02-23T08:58:16.729Z,12.57
2019-02-23T09:00:45.859Z,11.70
2019-02-23T09:03:14.979Z,11.73
2019-02-23T09:05:44.052Z,12.30
2019-02-23T09:08:13.205Z,11.57
2019-02-23T09:10:42.271Z,12.60
2019-02-23T09:13:11.364Z,11.53
2019-02-23T09:15:40.465Z,12.13
2019-02-23T09:18:09.789Z,11.23
2019-02-23T09:20:39.498Z,12.00
2019-02-23T09:23:08.599Z,11.87
2019-02-23T09:25:37.688Z,11.37
2019-02-23T09:28:06.770Z,11.23
2019-02-23T09:30:35.908Z,11.67
2019-02-23T09:33:04.978Z,12.20
2019-02-23T09:35:34.099Z,10.50
2019-02-23T09:38:03.165Z,10.90
2019-02-23T09:40:32.289Z,11.40
2019-02-23T09:43:01.521Z,11.17
2019-02-23T09:45:31.741Z,10.63
2019-02-23T09:48:01.148Z,11.43
2019-02-23T09:50:30.307Z,11.10
2019-02-23T09:52:59.477Z,11.07
2019-02-23T09:55:28.745Z,10.93
2019-02-23T09:57:57.909Z,10.77
2019-02-23T10:00:27.163Z,9.93
2019-02-23T10:02:56.298Z,10.47
2019-02-23T10:05:25.452Z,10.37
2019-02-23T10:07:54.563Z,9.77
2019-02-23T10:10:23.713Z,9.73
2019-02-23T10:12:52.889Z,9.70
2019-02-23T10:15:22.041Z,9.43
2019-02-23T10:17:51.197Z,8.97
2019-02-23T10:20:20.319Z,9.07
2019-02-23T10:22:49.413Z,9.00
2019-02-23T10:25:18.538Z,9.07
2019-02-23T10:27:47.705Z,9.17
2019-02-23T10:30:16.856Z,8.88
2019-02-23T10:32:45.938Z,8.57
2019-02-23T10:35:15.116Z,8.88
2019-02-23T10:37:44.259Z,8.33
2019-02-23T10:40:13.392Z,8.80
2019-02-23T10:42:42.606Z,8.83
2019-02-23T10:45:11.745Z,8.70
2019-02-23T10:47:40.855Z,8.28
2019-02-23T10:50:10.255Z,7.30
2019-02-23T10:52:39.416Z,8.60
2019-02-23T10:55:09.567Z,8.25
2019-02-23T10:57:38.723Z,7.42
2019-02-23T11:00:14.647Z,7.33
2019-02-23T11:02:43.832Z,8.35
2019-02-23T11:05:13.142Z,7.60
2019-02-23T11:07:42.588Z,7.42
2019-02-23T11:10:11.789Z,7.67
2019-02-23T11:12:41.044Z,7.40
2019-02-23T11:15:10.859Z,6.15
2019-02-23T11:17:39.990Z,7.00
2019-02-23T11:20:09.534Z,7.10
2019-02-23T11:22:38.651Z,6.37
2019-02-23T11:25:08.242Z,6.33
2019-02-23T11:27:37.417Z,6.70
2019-02-23T11:30:07.393Z,6.62
2019-02-23T11:32:36.586Z,6.63
2019-02-23T11:35:05.769Z,6.10
2019-02-23T11:37:34.858Z,5.97
2019-02-23T11:40:04.040Z,4.90
2019-02-23T11:42:33.203Z,5.90
2019-02-23T11:45:02.282Z,6.33
2019-02-23T11:47:31.401Z,5.47
2019-02-23T11:50:00.610Z,5.83
2019-02-23T11:52:29.735Z,6.03
2019-02-23T11:54:58.844Z,5.67
2019-02-23T11:57:28.014Z,6.22
2019-02-23T11:59:57.194Z,6.08
2019-02-23T12:02:26.247Z,6.25
2019-02-23T12:04:55.506Z,6.53
2019-02-23T12:07:24.575Z,6.33
2019-02-23T12:09:53.676Z,6.62
2019-02-23T12:12:22.913Z,6.07
2019-02-23T12:14:52.101Z,7.07
2019-02-23T12:17:21.268Z,6.97
2019-02-23T12:19:50.372Z,6.60
2019-02-23T12:22:19.430Z,6.20
2019-02-23T12:24:48.547Z,6.37
2019-02-23T12:27:17.694Z,5.47
2019-02-23T12:29:46.759Z,4.63
2019-02-23T12:32:15.891Z,5.87
2019-02-23T12:34:44.999Z,5.63
2019-02-23T12:37:14.092Z,5.03
2019-02-23T12:39:43.186Z,4.97
2019-02-23T12:42:12.321Z,4.70
2019-02-23T12:44:41.414Z,5.53
2019-02-23T12:47:10.536Z,5.07
2019-02-23T12:49:39.643Z,5.00
2019-02-23T12:52:08.889Z,5.50
2019-02-23T12:54:37.981Z,5.10
2019-02-23T12:57:07.095Z,5.60
2019-02-23T12:59:36.189Z,5.53
2019-02-23T13:02:05.277Z,5.50
2019-02-23T13:04:34.348Z,4.80
2019-02-23T13:07:03.436Z,4.97
2019-02-23T13:09:35.548Z,4.97
2019-02-23T13:12:18.753Z,5.10
2019-02-23T13:15:01.396Z,5.53
2019-02-23T13:17:45.555Z,5.13
2019-02-23T13:20:43.796Z,4.80
2019-02-23T13:23:58.847Z,5.20
2019-02-23T13:26:52.907Z,5.10
2019-02-23T13:30:18.326Z,5.10
2019-02-23T13:33:15.226Z,5.03
2019-02-23T13:36:11.710Z,5.63
2019-02-23T13:39:09.469Z,5.23
2019-02-23T13:42:15.886Z,4.77
2019-02-23T13:45:31.438Z,4.77
2019-02-23T13:48:24.552Z,4.87
2019-02-23T13:51:24.094Z,5.37
2019-02-23T13:54:39.285Z,4.73
2019-02-23T13:57:41.077Z,4.87
2019-02-23T14:01:00.433Z,5.13
2019-02-23T14:03:56.795Z,4.57
2019-02-23T14:06:58.121Z,5.43
2019-02-23T14:10:13.359Z,5.20
2019-02-23T14:13:32.598Z,4.77
2019-02-23T14:16:23.555Z,5.17
2019-02-23T14:19:19.019Z,5.30
2019-02-23T14:22:02.949Z,5.80
2019-02-23T14:25:17.213Z,5.30
2019-02-23T14:28:39.640Z,4.90
2019-02-23T14:31:59.326Z,5.53
2019-02-23T14:35:27.637Z,5.17
2019-02-23T14:38:42.386Z,4.93
2019-02-23T14:41:48.732Z,5.27
2019-02-23T14:44:55.940Z,4.83
2019-02-23T14:47:53.205Z,4.43
2019-02-23T14:51:08.809Z,5.17
2019-02-23T14:54:25.767Z,5.10
2019-02-23T14:57:57.040Z,4.93
2019-02-23T15:01:01.768Z,5.00
2019-02-23T15:04:14.172Z,4.70
2019-02-23T15:07:01.432Z,4.80
2019-02-23T15:09:59.349Z,5.50
2019-02-23T15:13:24.784Z,5.70
2019-02-23T15:16:18.021Z,4.90
2019-02-23T15:19:23.925Z,4.60
2019-02-23T15:22:34.695Z,5.00
2019-02-23T15:25:42.117Z,4.80
2019-02-23T15:28:38.308Z,4.93
2019-02-23T15:31:37.636Z,4.80
2019-02-23T15:34:46.610Z,5.83
2019-02-23T15:37:41.424Z,5.93
2019-02-23T15:41:00.233Z,5.07
2019-02-23T15:43:42.296Z,5.03
2019-02-23T15:46:48.055Z,5.20
2019-02-23T15:49:33.761Z,5.50
2019-02-23T15:52:07.274Z,5.30
2019-02-23T15:54:36.509Z,4.97
2019-02-23T15:57:05.627Z,4.50
2019-02-23T15:59:34.723Z,4.60
2019-02-23T16:02:03.865Z,4.80
2019-02-23T16:04:33.017Z,4.70
2019-02-23T16:07:02.061Z,4.53
2019-02-23T16:09:31.210Z,5.43
2019-02-23T16:12:00.352Z,5.07
2019-02-23T16:14:29.467Z,5.13
2019-02-23T16:16:58.599Z,4.70
2019-02-23T16:19:27.715Z,4.80
2019-02-23T16:21:56.818Z,4.40
2019-02-23T16:24:25.996Z,4.60
2019-02-23T16:26:55.139Z,4.97
2019-02-23T16:29:24.448Z,4.73
2019-02-23T16:31:53.612Z,4.50
2019-02-23T16:34:22.779Z,4.60
2019-02-23T16:36:51.841Z,5.00
2019-02-23T16:39:20.978Z,4.73
2019-02-23T16:41:50.099Z,5.40
2019-02-23T16:44:19.267Z,5.07
2019-02-23T16:46:48.436Z,4.80
2019-02-23T16:49:17.563Z,4.67
2019-02-23T16:51:46.695Z,5.37
2019-02-23T16:54:15.717Z,4.53
2019-02-23T16:56:44.823Z,4.87
2019-02-23T16:59:13.911Z,5.17
2019-02-23T17:01:42.983Z,5.33
2019-02-23T17:04:12.143Z,5.37
2019-02-23T17:06:41.239Z,6.77
2019-02-23T17:09:10.532Z,6.57
2019-02-23T17:11:39.619Z,6.23
2019-02-23T17:14:08.777Z,6.57
2019-02-23T17:16:37.949Z,6.03
2019-02-23T17:19:07.128Z,6.63
2019-02-23T17:21:36.309Z,7.40
2019-02-23T17:24:05.536Z,6.90
2019-02-23T17:26:36.806Z,8.03
2019-02-23T17:29:05.465Z,7.37
2019-02-23T17:31:34.594Z,7.87
2019-02-23T17:34:03.724Z,7.97
2019-02-23T17:36:32.815Z,8.13
2019-02-23T17:39:01.946Z,7.20
2019-02-23T17:41:31.055Z,7.43
2019-02-23T17:44:00.292Z,6.77
2019-02-23T17:46:29.423Z,6.40
2019-02-23T17:48:58.527Z,7.43
2019-02-23T17:51:27.626Z,8.40
2019-02-23T17:53:56.691Z,7.23
2019-02-23T17:56:25.717Z,6.53
2019-02-23T17:58:54.802Z,6.57
2019-02-23T18:01:25.459Z,6.87
2019-02-23T18:03:54.766Z,7.27
2019-02-23T18:06:24.258Z,9.27
2019-02-23T18:08:53.534Z,7.43
2019-02-23T18:11:23.105Z,6.77
2019-02-23T18:13:52.973Z,9.13
2019-02-23T18:16:22.184Z,8.07
2019-02-23T18:18:51.512Z,8.33
2019-02-23T18:21:20.954Z,6.37
2019-02-23T18:23:50.496Z,8.50
2019-02-23T18:26:21.940Z,7.70
2019-02-23T18:28:51.495Z,7.47
2019-02-23T18:31:20.834Z,9.63
2019-02-23T18:33:50.202Z,9.17
2019-02-23T18:36:19.588Z,8.83
2019-02-23T18:38:49.391Z,12.47
2019-02-23T18:41:18.746Z,9.47
2019-02-23T18:43:48.108Z,9.10
2019-02-23T18:46:17.407Z,9.03
2019-02-23T18:48:46.800Z,8.80
2019-02-23T18:51:16.449Z,8.23
2019-02-23T18:53:45.712Z,7.70
2019-02-23T18:56:15.139Z,9.17
2019-02-23T18:58:44.884Z,7.03
2019-02-23T19:01:15.319Z,7.33
2019-02-23T19:03:45.106Z,7.87
2019-02-23T19:06:14.487Z,9.20
2019-02-23T19:08:44.381Z,8.53
2019-02-23T19:11:13.794Z,7.70
2019-02-23T19:13:43.052Z,7.97
2019-02-23T19:16:12.963Z,7.60
2019-02-23T19:18:42.293Z,7.17
2019-02-23T19:21:11.545Z,7.67
2019-02-23T19:23:40.968Z,8.83
2019-02-23T19:26:10.337Z,6.93
2019-02-23T19:28:43.292Z,6.53
2019-02-23T19:31:11.821Z,7.80
2019-02-23T19:33:41.133Z,7.87
2019-02-23T19:36:10.850Z,7.47
2019-02-23T19:38:40.319Z,7.63
2019-02-23T19:41:09.903Z,7.60
2019-02-23T19:43:39.268Z,7.27
2019-02-23T19:46:08.687Z,6.47
2019-02-23T19:48:38.057Z,6.80
2019-02-23T19:51:10.145Z,7.53
2019-02-23T19:53:40.593Z,7.23
2019-02-23T19:56:09.942Z,7.63
2019-02-23T19:58:39.239Z,7.73
2019-02-23T20:01:08.786Z,6.50
2019-02-23T20:03:38.318Z,6.93
2019-02-23T20:06:08.498Z,6.93
2019-02-23T20:08:37.881Z,6.80
2019-02-23T20:11:10.319Z,8.33
2019-02-23T20:13:39.690Z,8.50
2019-02-23T20:16:09.053Z,8.53
2019-02-23T20:18:38.315Z,7.47
2019-02-23T20:21:07.662Z,8.17
2019-02-23T20:23:37.978Z,7.67
2019-02-23T20:26:07.267Z,7.50
2019-02-23T20:28:36.744Z,8.03
2019-02-23T20:31:06.014Z,8.30
2019-02-23T20:33:35.917Z,8.20
2019-02-23T20:36:05.555Z,7.73
2019-02-23T20:38:34.930Z,8.17
2019-02-23T20:41:04.049Z,6.90
2019-02-23T20:43:33.124Z,7.80
2019-02-23T20:46:02.239Z,7.30
2019-02-23T20:48:31.279Z,7.40
2019-02-23T20:51:00.364Z,7.60
2019-02-23T20:53:29.408Z,8.00
2019-02-23T20:55:58.460Z,9.27
2019-02-23T20:58:27.559Z,7.93
2019-02-23T21:00:56.671Z,7.47
2019-02-23T21:03:25.764Z,7.93
2019-02-23T21:05:54.813Z,8.67
2019-02-23T21:08:23.934Z,8.30
2019-02-23T21:10:53.801Z,8.77
2019-02-23T21:13:22.849Z,8.67
2019-02-23T21:15:51.946Z,8.70
2019-02-23T21:18:21.004Z,8.83
2019-02-23T21:20:51.611Z,8.90
2019-02-23T21:23:20.906Z,9.17
2019-02-23T21:25:50.070Z,8.37
2019-02-23T21:28:19.158Z,8.33
2019-02-23T21:30:48.243Z,8.40
2019-02-23T21:33:17.324Z,8.27
2019-02-23T21:35:46.439Z,9.40
2019-02-23T21:38:15.505Z,10.13
2019-02-23T21:40:44.661Z,9.57
2019-02-23T21:43:13.780Z,9.47
2019-02-23T21:45:42.959Z,9.60
2019-02-23T21:48:12.090Z,10.17
2019-02-23T21:50:41.200Z,9.90
2019-02-23T21:53:10.313Z,10.07
2019-02-23T21:55:39.554Z,9.13
2019-02-23T21:58:08.837Z,10.10
2019-02-23T22:00:38.011Z,9.67
2019-02-23T22:03:07.249Z,8.73
2019-02-23T22:05:36.378Z,9.37
2019-02-23T22:08:05.496Z,9.83
2019-02-23T22:10:34.704Z,9.83
2019-02-23T22:13:03.774Z,8.77
2019-02-23T22:15:32.937Z,8.87
2019-02-23T22:18:02.082Z,8.60
2019-02-23T22:20:31.143Z,9.83
2019-02-23T22:23:00.291Z,8.37
2019-02-23T22:25:29.588Z,10.00
2019-02-23T22:27:58.674Z,8.47
2019-02-23T22:30:27.748Z,10.03
2019-02-23T22:32:56.845Z,8.53
2019-02-23T22:35:25.925Z,8.97
2019-02-23T22:37:55.045Z,10.27
2019-02-23T22:40:24.196Z,9.87
2019-02-23T22:42:53.306Z,9.93
2019-02-23T22:45:22.403Z,9.13
2019-02-23T22:47:51.590Z,9.63
2019-02-23T22:50:21.588Z,10.77
2019-02-23T22:52:50.730Z,9.50
2019-02-23T22:55:19.815Z,10.80
2019-02-23T22:57:48.956Z,11.10
2019-02-23T23:00:23.846Z,10.43
2019-02-23T23:02:53.027Z,23.47
2019-02-23T23:05:22.128Z,12.90
2019-02-23T23:07:51.206Z,10.40
2019-02-23T23:10:20.340Z,9.77
2019-02-23T23:12:49.445Z,9.53
2019-02-23T23:15:18.545Z,9.63
2019-02-23T23:17:47.678Z,8.97
2019-02-23T23:20:16.791Z,9.00
2019-02-23T23:22:45.968Z,9.03
2019-02-23T23:25:15.040Z,9.50
2019-02-23T23:27:49.337Z,8.63
2019-02-23T23:30:15.071Z,8.77
2019-02-23T23:32:44.187Z,8.63
2019-02-23T23:35:13.314Z,8.73
2019-02-23T23:37:42.385Z,8.53
2019-02-23T23:40:11.506Z,8.13
2019-02-23T23:42:40.668Z,8.50
2019-02-23T23:45:09.784Z,9.78
2019-02-23T23:47:38.837Z,8.33
2019-02-23T23:50:07.921Z,8.27
2019-02-23T23:52:36.998Z,8.77
2019-02-23T23:55:06.100Z,8.50
2019-02-23T23:57:35.173Z,8.40
